sensor_id;sensor_type;location;lat;lon;timestamp;P1;durP1;ratioP1;P2;durP2;ratioP2
34035;SDS011;63481;52.588;22.472;2023-05-03T00:00:10;11.80;;;6.00;;
34035;SDS011;63481;52.588;22.472;2023-05-03T00:01:07;10.90;;;5.30;;
34035;SDS011;63481;52.588;22.472;2023-05-03T00:01:40;10.50;;;6.00;;
34035;SDS011;63481;52.588;22.472;2023-05-03T00:02:14;11.60;;;6.10;;
34035;SDS011;63481;52.588;22.472;2023-05-03T00:02:47;11.10;;;5.60;;
34035;SDS011;63481;52.588;22.472;2023-05-03T00:03:19;13.00;;;6.20;;
34035;SDS011;63481;52.588;22.472;2023-05-03T00:03:55;13.10;;;6.50;;
34035;SDS011;63481;52.588;22.472;2023-05-03T00:04:27;14.20;;;5.80;;
34035;SDS011;63481;52.588;22.472;2023-05-03T00:04:59;14.40;;;7.30;;
34035;SDS011;63481;52.588;22.472;2023-05-03T00:05:32;11.80;;;6.60;;
34035;SDS011;63481;52.588;22.472;2023-05-03T00:06:10;13.30;;;6.40;;
34035;SDS011;63481;52.588;22.472;2023-05-03T00:06:43;13.30;;;6.40;;
34035;SDS011;63481;52.588;22.472;2023-05-03T00:07:15;12.80;;;7.30;;
34035;SDS011;63481;52.588;22.472;2023-05-03T00:07:49;11.30;;;6.50;;
34035;SDS011;63481;52.588;22.472;2023-05-03T00:08:21;11.80;;;6.70;;
34035;SDS011;63481;52.588;22.472;2023-05-03T00:08:53;12.50;;;7.00;;
34035;SDS011;63481;52.588;22.472;2023-05-03T00:09:25;16.30;;;7.30;;
34035;SDS011;63481;52.588;22.472;2023-05-03T00:09:58;12.50;;;7.40;;
34035;SDS011;63481;52.588;22.472;2023-05-03T00:10:30;16.00;;;7.90;;
34035;SDS011;63481;52.588;22.472;2023-05-03T00:11:02;16.20;;;7.50;;
34035;SDS011;63481;52.588;22.472;2023-05-03T00:11:35;13.20;;;7.80;;
34035;SDS011;63481;52.588;22.472;2023-05-03T00:12:08;13.50;;;8.10;;
34035;SDS011;63481;52.588;22.472;2023-05-03T00:12:41;15.10;;;7.90;;
34035;SDS011;63481;52.588;22.472;2023-05-03T00:13:14;12.50;;;7.60;;
34035;SDS011;63481;52.588;22.472;2023-05-03T00:13:46;13.30;;;7.20;;
34035;SDS011;63481;52.588;22.472;2023-05-03T00:14:19;13.40;;;8.10;;
34035;SDS011;63481;52.588;22.472;2023-05-03T00:14:51;14.50;;;7.80;;
34035;SDS011;63481;52.588;22.472;2023-05-03T00:15:23;14.30;;;7.90;;
34035;SDS011;63481;52.588;22.472;2023-05-03T00:15:55;14.20;;;8.10;;
34035;SDS011;63481;52.588;22.472;2023-05-03T00:16:27;13.00;;;8.00;;
34035;SDS011;63481;52.588;22.472;2023-05-03T00:16:59;15.10;;;7.60;;
34035;SDS011;63481;52.588;22.472;2023-05-03T00:17:32;15.60;;;8.10;;
34035;SDS011;63481;52.588;22.472;2023-05-03T00:18:05;12.90;;;7.90;;
34035;SDS011;63481;52.588;22.472;2023-05-03T00:18:38;15.00;;;8.10;;
34035;SDS011;63481;52.588;22.472;2023-05-03T00:19:10;21.30;;;8.10;;
34035;SDS011;63481;52.588;22.472;2023-05-03T00:19:42;13.90;;;7.30;;
34035;SDS011;63481;52.588;22.472;2023-05-03T00:20:15;16.00;;;8.00;;
34035;SDS011;63481;52.588;22.472;2023-05-03T00:20:48;14.00;;;7.10;;
34035;SDS011;63481;52.588;22.472;2023-05-03T00:21:21;13.10;;;7.90;;
34035;SDS011;63481;52.588;22.472;2023-05-03T00:21:54;12.70;;;7.10;;
34035;SDS011;63481;52.588;22.472;2023-05-03T00:22:26;13.40;;;7.40;;
34035;SDS011;63481;52.588;22.472;2023-05-03T00:22:59;12.10;;;7.20;;
34035;SDS011;63481;52.588;22.472;2023-05-03T00:23:33;12.30;;;6.90;;
34035;SDS011;63481;52.588;22.472;2023-05-03T00:24:05;12.90;;;7.20;;
34035;SDS011;63481;52.588;22.472;2023-05-03T00:24:37;12.80;;;6.90;;
34035;SDS011;63481;52.588;22.472;2023-05-03T00:25:09;11.40;;;7.10;;
34035;SDS011;63481;52.588;22.472;2023-05-03T00:25:42;13.90;;;7.20;;
34035;SDS011;63481;52.588;22.472;2023-05-03T00:26:15;12.70;;;7.50;;
34035;SDS011;63481;52.588;22.472;2023-05-03T00:26:47;13.00;;;7.50;;
34035;SDS011;63481;52.588;22.472;2023-05-03T00:27:19;12.50;;;7.10;;
34035;SDS011;63481;52.588;22.472;2023-05-03T00:27:52;12.00;;;7.40;;
34035;SDS011;63481;52.588;22.472;2023-05-03T00:28:24;13.10;;;7.00;;
34035;SDS011;63481;52.588;22.472;2023-05-03T00:28:57;11.10;;;6.70;;
34035;SDS011;63481;52.588;22.472;2023-05-03T00:29:29;11.70;;;6.80;;
34035;SDS011;63481;52.588;22.472;2023-05-03T00:30:02;14.70;;;7.00;;
34035;SDS011;63481;52.588;22.472;2023-05-03T00:30:35;14.30;;;7.10;;
34035;SDS011;63481;52.588;22.472;2023-05-03T00:31:08;13.20;;;7.80;;
34035;SDS011;63481;52.588;22.472;2023-05-03T00:31:44;12.90;;;6.80;;
34035;SDS011;63481;52.588;22.472;2023-05-03T00:32:17;11.50;;;6.60;;
34035;SDS011;63481;52.588;22.472;2023-05-03T00:32:51;12.40;;;6.60;;
34035;SDS011;63481;52.588;22.472;2023-05-03T00:33:23;13.40;;;7.10;;
34035;SDS011;63481;52.588;22.472;2023-05-03T00:33:56;13.80;;;6.90;;
34035;SDS011;63481;52.588;22.472;2023-05-03T00:34:28;12.40;;;6.20;;
34035;SDS011;63481;52.588;22.472;2023-05-03T00:35:00;11.50;;;6.30;;
34035;SDS011;63481;52.588;22.472;2023-05-03T00:35:32;11.90;;;6.70;;
34035;SDS011;63481;52.588;22.472;2023-05-03T00:36:11;11.90;;;6.70;;
34035;SDS011;63481;52.588;22.472;2023-05-03T00:37:17;12.70;;;6.30;;
34035;SDS011;63481;52.588;22.472;2023-05-03T00:37:49;12.30;;;6.10;;
34035;SDS011;63481;52.588;22.472;2023-05-03T00:38:22;11.40;;;6.60;;
34035;SDS011;63481;52.588;22.472;2023-05-03T00:38:54;11.50;;;6.70;;
34035;SDS011;63481;52.588;22.472;2023-05-03T00:39:30;14.40;;;6.40;;
34035;SDS011;63481;52.588;22.472;2023-05-03T00:40:02;14.20;;;6.80;;
34035;SDS011;63481;52.588;22.472;2023-05-03T00:40:35;11.80;;;6.50;;
34035;SDS011;63481;52.588;22.472;2023-05-03T00:41:08;11.50;;;6.70;;
34035;SDS011;63481;52.588;22.472;2023-05-03T00:41:41;11.30;;;6.30;;
34035;SDS011;63481;52.588;22.472;2023-05-03T00:42:14;11.50;;;6.10;;
34035;SDS011;63481;52.588;22.472;2023-05-03T00:42:46;11.30;;;6.60;;
34035;SDS011;63481;52.588;22.472;2023-05-03T00:43:18;11.30;;;6.60;;
34035;SDS011;63481;52.588;22.472;2023-05-03T00:43:51;13.00;;;6.40;;
34035;SDS011;63481;52.588;22.472;2023-05-03T00:44:23;13.70;;;6.90;;
34035;SDS011;63481;52.588;22.472;2023-05-03T00:44:55;12.10;;;6.90;;
34035;SDS011;63481;52.588;22.472;2023-05-03T00:45:31;12.30;;;6.30;;
34035;SDS011;63481;52.588;22.472;2023-05-03T00:46:05;16.40;;;6.80;;
34035;SDS011;63481;52.588;22.472;2023-05-03T00:46:38;12.00;;;6.40;;
34035;SDS011;63481;52.588;22.472;2023-05-03T00:47:11;14.00;;;7.50;;
34035;SDS011;63481;52.588;22.472;2023-05-03T00:47:43;12.30;;;7.00;;
34035;SDS011;63481;52.588;22.472;2023-05-03T00:48:15;16.00;;;7.10;;
34035;SDS011;63481;52.588;22.472;2023-05-03T00:48:49;12.50;;;6.50;;
34035;SDS011;63481;52.588;22.472;2023-05-03T00:49:25;12.60;;;7.00;;
34035;SDS011;63481;52.588;22.472;2023-05-03T00:49:58;10.70;;;6.40;;
34035;SDS011;63481;52.588;22.472;2023-05-03T00:50:31;12.20;;;6.60;;
34035;SDS011;63481;52.588;22.472;2023-05-03T00:51:03;14.20;;;6.80;;
34035;SDS011;63481;52.588;22.472;2023-05-03T00:51:37;11.90;;;6.60;;
34035;SDS011;63481;52.588;22.472;2023-05-03T00:52:12;13.00;;;6.50;;
34035;SDS011;63481;52.588;22.472;2023-05-03T00:52:45;10.70;;;6.30;;
34035;SDS011;63481;52.588;22.472;2023-05-03T00:53:20;10.30;;;6.10;;
34035;SDS011;63481;52.588;22.472;2023-05-03T00:53:55;13.60;;;6.10;;
34035;SDS011;63481;52.588;22.472;2023-05-03T00:54:28;12.50;;;6.80;;
34035;SDS011;63481;52.588;22.472;2023-05-03T00:55:01;11.80;;;6.60;;
34035;SDS011;63481;52.588;22.472;2023-05-03T00:55:33;12.20;;;6.60;;
34035;SDS011;63481;52.588;22.472;2023-05-03T00:56:07;13.30;;;5.90;;
34035;SDS011;63481;52.588;22.472;2023-05-03T00:56:40;11.60;;;6.20;;
34035;SDS011;63481;52.588;22.472;2023-05-03T00:57:13;10.90;;;5.90;;
34035;SDS011;63481;52.588;22.472;2023-05-03T00:57:45;12.50;;;6.30;;
34035;SDS011;63481;52.588;22.472;2023-05-03T00:58:18;12.90;;;6.40;;
34035;SDS011;63481;52.588;22.472;2023-05-03T00:58:51;11.50;;;6.80;;
34035;SDS011;63481;52.588;22.472;2023-05-03T00:59:24;10.40;;;6.20;;
34035;SDS011;63481;52.588;22.472;2023-05-03T00:59:57;10.80;;;6.40;;
34035;SDS011;63481;52.588;22.472;2023-05-03T01:00:30;12.00;;;6.00;;
34035;SDS011;63481;52.588;22.472;2023-05-03T01:01:03;11.10;;;6.20;;
34035;SDS011;63481;52.588;22.472;2023-05-03T01:01:35;14.80;;;5.90;;
34035;SDS011;63481;52.588;22.472;2023-05-03T01:02:08;10.00;;;6.10;;
34035;SDS011;63481;52.588;22.472;2023-05-03T01:02:40;11.40;;;6.00;;
34035;SDS011;63481;52.588;22.472;2023-05-03T01:03:13;11.70;;;6.40;;
34035;SDS011;63481;52.588;22.472;2023-05-03T01:03:45;12.60;;;6.90;;
34035;SDS011;63481;52.588;22.472;2023-05-03T01:04:19;13.50;;;6.30;;
34035;SDS011;63481;52.588;22.472;2023-05-03T01:04:52;14.10;;;7.00;;
34035;SDS011;63481;52.588;22.472;2023-05-03T01:05:27;14.00;;;6.50;;
34035;SDS011;63481;52.588;22.472;2023-05-03T01:08:49;11.40;;;5.80;;
34035;SDS011;63481;52.588;22.472;2023-05-03T01:10:31;12.90;;;5.90;;
34035;SDS011;63481;52.588;22.472;2023-05-03T01:11:15;11.20;;;5.70;;
34035;SDS011;63481;52.588;22.472;2023-05-03T01:13:56;11.50;;;5.70;;
34035;SDS011;63481;52.588;22.472;2023-05-03T01:16:33;9.80;;;5.50;;
34035;SDS011;63481;52.588;22.472;2023-05-03T01:17:12;11.00;;;6.00;;
34035;SDS011;63481;52.588;22.472;2023-05-03T01:17:49;12.90;;;6.10;;
34035;SDS011;63481;52.588;22.472;2023-05-03T01:18:27;11.50;;;5.40;;
34035;SDS011;63481;52.588;22.472;2023-05-03T01:19:06;16.10;;;6.00;;
34035;SDS011;63481;52.588;22.472;2023-05-03T01:20:05;11.30;;;5.50;;
34035;SDS011;63481;52.588;22.472;2023-05-03T01:20:46;10.10;;;5.40;;
34035;SDS011;63481;52.588;22.472;2023-05-03T01:21:20;12.60;;;6.00;;
34035;SDS011;63481;52.588;22.472;2023-05-03T01:21:56;11.80;;;5.80;;
34035;SDS011;63481;52.588;22.472;2023-05-03T01:23:32;14.90;;;5.80;;
34035;SDS011;63481;52.588;22.472;2023-05-03T01:24:12;9.90;;;5.50;;
34035;SDS011;63481;52.588;22.472;2023-05-03T01:25:54;10.80;;;4.90;;
34035;SDS011;63481;52.588;22.472;2023-05-03T01:26:26;10.80;;;5.40;;
34035;SDS011;63481;52.588;22.472;2023-05-03T01:26:59;10.10;;;4.90;;
34035;SDS011;63481;52.588;22.472;2023-05-03T01:27:31;10.20;;;5.10;;
34035;SDS011;63481;52.588;22.472;2023-05-03T01:28:03;10.40;;;4.90;;
34035;SDS011;63481;52.588;22.472;2023-05-03T01:28:35;9.30;;;4.40;;
34035;SDS011;63481;52.588;22.472;2023-05-03T01:29:08;11.80;;;4.90;;
34035;SDS011;63481;52.588;22.472;2023-05-03T01:29:42;10.30;;;4.60;;
34035;SDS011;63481;52.588;22.472;2023-05-03T01:30:15;8.50;;;4.90;;
34035;SDS011;63481;52.588;22.472;2023-05-03T01:30:47;9.70;;;5.30;;
34035;SDS011;63481;52.588;22.472;2023-05-03T01:31:27;10.30;;;4.80;;
34035;SDS011;63481;52.588;22.472;2023-05-03T01:32:06;10.20;;;4.80;;
34035;SDS011;63481;52.588;22.472;2023-05-03T01:32:49;8.40;;;4.90;;
34035;SDS011;63481;52.588;22.472;2023-05-03T01:33:30;10.10;;;4.90;;
34035;SDS011;63481;52.588;22.472;2023-05-03T01:34:10;9.30;;;4.60;;
34035;SDS011;63481;52.588;22.472;2023-05-03T01:35:40;8.20;;;5.00;;
34035;SDS011;63481;52.588;22.472;2023-05-03T01:36:28;9.20;;;5.00;;
34035;SDS011;63481;52.588;22.472;2023-05-03T01:37:04;8.80;;;4.50;;
34035;SDS011;63481;52.588;22.472;2023-05-03T01:37:41;9.00;;;4.70;;
34035;SDS011;63481;52.588;22.472;2023-05-03T01:38:14;9.90;;;4.70;;
34035;SDS011;63481;52.588;22.472;2023-05-03T01:38:49;8.70;;;4.60;;
34035;SDS011;63481;52.588;22.472;2023-05-03T01:39:22;9.90;;;4.80;;
34035;SDS011;63481;52.588;22.472;2023-05-03T01:40:01;10.30;;;5.90;;
34035;SDS011;63481;52.588;22.472;2023-05-03T01:40:49;9.10;;;4.60;;
34035;SDS011;63481;52.588;22.472;2023-05-03T01:41:24;10.10;;;4.40;;
34035;SDS011;63481;52.588;22.472;2023-05-03T01:41:58;8.80;;;4.70;;
34035;SDS011;63481;52.588;22.472;2023-05-03T01:42:34;8.80;;;4.10;;
34035;SDS011;63481;52.588;22.472;2023-05-03T01:43:09;6.60;;;4.50;;
34035;SDS011;63481;52.588;22.472;2023-05-03T01:43:44;7.90;;;4.10;;
34035;SDS011;63481;52.588;22.472;2023-05-03T01:44:19;10.30;;;4.70;;
34035;SDS011;63481;52.588;22.472;2023-05-03T01:44:53;7.70;;;4.00;;
34035;SDS011;63481;52.588;22.472;2023-05-03T01:45:27;11.40;;;4.60;;
34035;SDS011;63481;52.588;22.472;2023-05-03T01:46:00;9.40;;;4.30;;
34035;SDS011;63481;52.588;22.472;2023-05-03T01:46:32;11.70;;;5.00;;
34035;SDS011;63481;52.588;22.472;2023-05-03T01:47:04;11.60;;;4.70;;
34035;SDS011;63481;52.588;22.472;2023-05-03T01:47:40;10.80;;;4.30;;
34035;SDS011;63481;52.588;22.472;2023-05-03T01:48:13;6.90;;;4.30;;
34035;SDS011;63481;52.588;22.472;2023-05-03T01:48:46;9.10;;;4.20;;
34035;SDS011;63481;52.588;22.472;2023-05-03T01:49:19;9.60;;;4.10;;
34035;SDS011;63481;52.588;22.472;2023-05-03T01:49:51;9.10;;;4.20;;
34035;SDS011;63481;52.588;22.472;2023-05-03T01:50:23;8.20;;;4.30;;
34035;SDS011;63481;52.588;22.472;2023-05-03T01:50:55;12.10;;;5.00;;
34035;SDS011;63481;52.588;22.472;2023-05-03T01:51:29;10.80;;;5.40;;
34035;SDS011;63481;52.588;22.472;2023-05-03T01:52:01;7.50;;;4.60;;
34035;SDS011;63481;52.588;22.472;2023-05-03T01:52:33;9.70;;;4.80;;
34035;SDS011;63481;52.588;22.472;2023-05-03T01:53:06;9.70;;;4.70;;
34035;SDS011;63481;52.588;22.472;2023-05-03T01:53:38;9.60;;;4.90;;
34035;SDS011;63481;52.588;22.472;2023-05-03T01:54:13;8.30;;;4.60;;
34035;SDS011;63481;52.588;22.472;2023-05-03T01:54:45;10.80;;;4.70;;
34035;SDS011;63481;52.588;22.472;2023-05-03T01:55:20;8.90;;;4.20;;
34035;SDS011;63481;52.588;22.472;2023-05-03T01:55:52;10.00;;;4.80;;
34035;SDS011;63481;52.588;22.472;2023-05-03T01:56:24;8.50;;;4.10;;
34035;SDS011;63481;52.588;22.472;2023-05-03T01:56:57;9.70;;;4.90;;
34035;SDS011;63481;52.588;22.472;2023-05-03T01:57:29;9.40;;;4.60;;
34035;SDS011;63481;52.588;22.472;2023-05-03T01:58:02;10.40;;;4.80;;
34035;SDS011;63481;52.588;22.472;2023-05-03T01:58:34;9.40;;;4.50;;
34035;SDS011;63481;52.588;22.472;2023-05-03T01:59:09;8.50;;;4.50;;
34035;SDS011;63481;52.588;22.472;2023-05-03T01:59:42;8.00;;;4.50;;
34035;SDS011;63481;52.588;22.472;2023-05-03T02:00:14;8.30;;;4.20;;
34035;SDS011;63481;52.588;22.472;2023-05-03T02:00:47;9.30;;;4.40;;
34035;SDS011;63481;52.588;22.472;2023-05-03T02:01:19;9.30;;;4.50;;
34035;SDS011;63481;52.588;22.472;2023-05-03T02:01:51;9.00;;;4.50;;
34035;SDS011;63481;52.588;22.472;2023-05-03T02:02:24;10.00;;;5.10;;
34035;SDS011;63481;52.588;22.472;2023-05-03T02:02:56;10.50;;;4.80;;
34035;SDS011;63481;52.588;22.472;2023-05-03T02:03:29;10.00;;;4.90;;
34035;SDS011;63481;52.588;22.472;2023-05-03T02:04:01;8.90;;;4.30;;
34035;SDS011;63481;52.588;22.472;2023-05-03T02:04:33;10.00;;;4.70;;
34035;SDS011;63481;52.588;22.472;2023-05-03T02:05:05;9.70;;;5.00;;
34035;SDS011;63481;52.588;22.472;2023-05-03T02:05:39;10.50;;;4.80;;
34035;SDS011;63481;52.588;22.472;2023-05-03T02:06:12;11.50;;;5.10;;
34035;SDS011;63481;52.588;22.472;2023-05-03T02:06:44;8.20;;;4.70;;
34035;SDS011;63481;52.588;22.472;2023-05-03T02:07:16;9.90;;;4.80;;
34035;SDS011;63481;52.588;22.472;2023-05-03T02:07:49;9.60;;;4.80;;
34035;SDS011;63481;52.588;22.472;2023-05-03T02:08:21;8.50;;;4.80;;
34035;SDS011;63481;52.588;22.472;2023-05-03T02:08:53;10.90;;;4.90;;
34035;SDS011;63481;52.588;22.472;2023-05-03T02:09:26;9.90;;;5.00;;
34035;SDS011;63481;52.588;22.472;2023-05-03T02:09:58;8.30;;;4.70;;
34035;SDS011;63481;52.588;22.472;2023-05-03T02:10:30;9.60;;;5.10;;
34035;SDS011;63481;52.588;22.472;2023-05-03T02:11:02;13.10;;;5.90;;
34035;SDS011;63481;52.588;22.472;2023-05-03T02:11:35;10.00;;;5.00;;
34035;SDS011;63481;52.588;22.472;2023-05-03T02:12:07;9.70;;;5.10;;
34035;SDS011;63481;52.588;22.472;2023-05-03T02:12:41;8.10;;;4.50;;
34035;SDS011;63481;52.588;22.472;2023-05-03T02:13:13;11.60;;;5.40;;
34035;SDS011;63481;52.588;22.472;2023-05-03T02:13:49;10.50;;;5.10;;
34035;SDS011;63481;52.588;22.472;2023-05-03T02:14:21;10.10;;;5.20;;
34035;SDS011;63481;52.588;22.472;2023-05-03T02:14:54;10.40;;;5.40;;
34035;SDS011;63481;52.588;22.472;2023-05-03T02:15:26;9.60;;;5.10;;
34035;SDS011;63481;52.588;22.472;2023-05-03T02:15:59;10.20;;;5.10;;
34035;SDS011;63481;52.588;22.472;2023-05-03T02:16:31;9.70;;;5.00;;
34035;SDS011;63481;52.588;22.472;2023-05-03T02:17:03;10.40;;;4.60;;
34035;SDS011;63481;52.588;22.472;2023-05-03T02:17:35;11.20;;;5.10;;
34035;SDS011;63481;52.588;22.472;2023-05-03T02:18:09;11.30;;;5.60;;
34035;SDS011;63481;52.588;22.472;2023-05-03T02:18:41;9.10;;;4.90;;
34035;SDS011;63481;52.588;22.472;2023-05-03T02:19:15;11.60;;;5.50;;
34035;SDS011;63481;52.588;22.472;2023-05-03T02:19:47;10.90;;;5.10;;
34035;SDS011;63481;52.588;22.472;2023-05-03T02:20:19;10.70;;;5.40;;
34035;SDS011;63481;52.588;22.472;2023-05-03T02:20:51;10.50;;;5.50;;
34035;SDS011;63481;52.588;22.472;2023-05-03T02:21:24;11.50;;;4.90;;
34035;SDS011;63481;52.588;22.472;2023-05-03T02:21:59;10.00;;;5.10;;
34035;SDS011;63481;52.588;22.472;2023-05-03T02:22:31;9.90;;;5.00;;
34035;SDS011;63481;52.588;22.472;2023-05-03T02:23:03;9.90;;;5.10;;
34035;SDS011;63481;52.588;22.472;2023-05-03T02:23:36;8.40;;;4.70;;
34035;SDS011;63481;52.588;22.472;2023-05-03T02:24:09;9.70;;;5.40;;
34035;SDS011;63481;52.588;22.472;2023-05-03T02:24:41;11.20;;;5.20;;
34035;SDS011;63481;52.588;22.472;2023-05-03T02:25:15;10.90;;;5.30;;
34035;SDS011;63481;52.588;22.472;2023-05-03T02:25:47;11.30;;;5.60;;
34035;SDS011;63481;52.588;22.472;2023-05-03T02:26:20;10.70;;;5.60;;
34035;SDS011;63481;52.588;22.472;2023-05-03T02:26:52;11.80;;;5.50;;
34035;SDS011;63481;52.588;22.472;2023-05-03T02:27:24;11.80;;;5.50;;
34035;SDS011;63481;52.588;22.472;2023-05-03T02:27:57;10.20;;;4.90;;
34035;SDS011;63481;52.588;22.472;2023-05-03T02:28:29;11.20;;;5.70;;
34035;SDS011;63481;52.588;22.472;2023-05-03T02:29:02;11.40;;;5.20;;
34035;SDS011;63481;52.588;22.472;2023-05-03T02:29:34;13.20;;;5.40;;
34035;SDS011;63481;52.588;22.472;2023-05-03T02:30:07;11.60;;;5.70;;
34035;SDS011;63481;52.588;22.472;2023-05-03T02:30:45;12.70;;;6.00;;
34035;SDS011;63481;52.588;22.472;2023-05-03T02:31:18;10.60;;;5.50;;
34035;SDS011;63481;52.588;22.472;2023-05-03T02:31:50;12.10;;;5.90;;
34035;SDS011;63481;52.588;22.472;2023-05-03T02:32:22;13.20;;;6.10;;
34035;SDS011;63481;52.588;22.472;2023-05-03T02:32:57;10.00;;;5.20;;
34035;SDS011;63481;52.588;22.472;2023-05-03T02:33:29;10.90;;;5.90;;
34035;SDS011;63481;52.588;22.472;2023-05-03T02:34:02;9.90;;;5.70;;
34035;SDS011;63481;52.588;22.472;2023-05-03T02:34:34;10.10;;;5.60;;
34035;SDS011;63481;52.588;22.472;2023-05-03T02:35:07;12.40;;;5.60;;
34035;SDS011;63481;52.588;22.472;2023-05-03T02:35:40;11.40;;;5.60;;
34035;SDS011;63481;52.588;22.472;2023-05-03T02:36:12;16.10;;;6.20;;
34035;SDS011;63481;52.588;22.472;2023-05-03T02:36:44;10.70;;;5.50;;
34035;SDS011;63481;52.588;22.472;2023-05-03T02:37:17;13.10;;;6.10;;
34035;SDS011;63481;52.588;22.472;2023-05-03T02:37:49;12.80;;;6.10;;
34035;SDS011;63481;52.588;22.472;2023-05-03T02:38:22;12.50;;;6.30;;
34035;SDS011;63481;52.588;22.472;2023-05-03T02:38:54;10.70;;;6.30;;
34035;SDS011;63481;52.588;22.472;2023-05-03T02:39:27;11.60;;;6.00;;
34035;SDS011;63481;52.588;22.472;2023-05-03T02:40:00;11.50;;;5.90;;
34035;SDS011;63481;52.588;22.472;2023-05-03T02:40:32;12.80;;;6.60;;
34035;SDS011;63481;52.588;22.472;2023-05-03T02:41:05;9.80;;;5.70;;
34035;SDS011;63481;52.588;22.472;2023-05-03T02:41:37;12.80;;;5.90;;
34035;SDS011;63481;52.588;22.472;2023-05-03T02:42:09;12.30;;;6.30;;
34035;SDS011;63481;52.588;22.472;2023-05-03T02:42:41;12.40;;;6.50;;
34035;SDS011;63481;52.588;22.472;2023-05-03T02:43:14;13.70;;;6.00;;
34035;SDS011;63481;52.588;22.472;2023-05-03T02:43:46;12.40;;;6.10;;
34035;SDS011;63481;52.588;22.472;2023-05-03T02:44:19;11.50;;;6.50;;
34035;SDS011;63481;52.588;22.472;2023-05-03T02:44:51;14.20;;;6.60;;
34035;SDS011;63481;52.588;22.472;2023-05-03T02:45:23;14.40;;;7.00;;
34035;SDS011;63481;52.588;22.472;2023-05-03T02:45:55;13.20;;;6.40;;
34035;SDS011;63481;52.588;22.472;2023-05-03T02:46:29;14.10;;;6.30;;
34035;SDS011;63481;52.588;22.472;2023-05-03T02:47:02;12.70;;;6.70;;
34035;SDS011;63481;52.588;22.472;2023-05-03T02:47:35;13.60;;;6.40;;
34035;SDS011;63481;52.588;22.472;2023-05-03T02:48:07;13.40;;;6.50;;
34035;SDS011;63481;52.588;22.472;2023-05-03T02:48:40;12.50;;;6.50;;
34035;SDS011;63481;52.588;22.472;2023-05-03T02:49:12;12.80;;;7.10;;
34035;SDS011;63481;52.588;22.472;2023-05-03T02:49:44;13.80;;;7.20;;
34035;SDS011;63481;52.588;22.472;2023-05-03T02:50:17;12.20;;;6.30;;
34035;SDS011;63481;52.588;22.472;2023-05-03T02:50:50;10.60;;;5.80;;
34035;SDS011;63481;52.588;22.472;2023-05-03T02:51:22;12.30;;;6.70;;
34035;SDS011;63481;52.588;22.472;2023-05-03T02:51:55;12.20;;;7.20;;
34035;SDS011;63481;52.588;22.472;2023-05-03T02:52:28;12.70;;;6.20;;
34035;SDS011;63481;52.588;22.472;2023-05-03T02:53:01;12.40;;;6.40;;
34035;SDS011;63481;52.588;22.472;2023-05-03T02:53:35;11.20;;;6.00;;
34035;SDS011;63481;52.588;22.472;2023-05-03T02:54:07;14.00;;;6.70;;
34035;SDS011;63481;52.588;22.472;2023-05-03T02:54:40;11.20;;;6.60;;
34035;SDS011;63481;52.588;22.472;2023-05-03T02:55:13;11.30;;;6.90;;
34035;SDS011;63481;52.588;22.472;2023-05-03T02:55:46;13.00;;;6.60;;
34035;SDS011;63481;52.588;22.472;2023-05-03T02:56:19;13.50;;;6.80;;
34035;SDS011;63481;52.588;22.472;2023-05-03T02:56:52;12.70;;;7.00;;
34035;SDS011;63481;52.588;22.472;2023-05-03T02:57:24;12.70;;;7.00;;
34035;SDS011;63481;52.588;22.472;2023-05-03T02:57:57;12.30;;;6.70;;
34035;SDS011;63481;52.588;22.472;2023-05-03T02:58:30;12.70;;;6.60;;
34035;SDS011;63481;52.588;22.472;2023-05-03T02:59:03;13.00;;;6.50;;
34035;SDS011;63481;52.588;22.472;2023-05-03T02:59:35;13.90;;;6.90;;
34035;SDS011;63481;52.588;22.472;2023-05-03T03:00:08;14.20;;;6.80;;
34035;SDS011;63481;52.588;22.472;2023-05-03T03:00:42;12.30;;;6.20;;
34035;SDS011;63481;52.588;22.472;2023-05-03T03:01:15;12.60;;;6.50;;
34035;SDS011;63481;52.588;22.472;2023-05-03T03:01:48;12.80;;;6.80;;
34035;SDS011;63481;52.588;22.472;2023-05-03T03:02:21;12.30;;;6.20;;
34035;SDS011;63481;52.588;22.472;2023-05-03T03:02:53;12.80;;;6.20;;
34035;SDS011;63481;52.588;22.472;2023-05-03T03:03:26;15.40;;;6.90;;
34035;SDS011;63481;52.588;22.472;2023-05-03T03:03:58;16.40;;;7.40;;
34035;SDS011;63481;52.588;22.472;2023-05-03T03:04:31;13.50;;;6.90;;
34035;SDS011;63481;52.588;22.472;2023-05-03T03:05:03;12.20;;;6.90;;
34035;SDS011;63481;52.588;22.472;2023-05-03T03:05:36;13.70;;;7.00;;
34035;SDS011;63481;52.588;22.472;2023-05-03T03:06:08;11.20;;;6.40;;
34035;SDS011;63481;52.588;22.472;2023-05-03T03:06:41;13.10;;;6.60;;
34035;SDS011;63481;52.588;22.472;2023-05-03T03:07:13;15.70;;;6.70;;
34035;SDS011;63481;52.588;22.472;2023-05-03T03:07:45;11.10;;;6.90;;
34035;SDS011;63481;52.588;22.472;2023-05-03T03:08:17;13.80;;;6.30;;
34035;SDS011;63481;52.588;22.472;2023-05-03T03:08:50;11.60;;;7.20;;
34035;SDS011;63481;52.588;22.472;2023-05-03T03:09:22;11.70;;;6.30;;
34035;SDS011;63481;52.588;22.472;2023-05-03T03:09:55;12.90;;;6.70;;
34035;SDS011;63481;52.588;22.472;2023-05-03T03:10:27;14.60;;;6.70;;
34035;SDS011;63481;52.588;22.472;2023-05-03T03:10:59;11.60;;;6.90;;
34035;SDS011;63481;52.588;22.472;2023-05-03T03:11:32;13.70;;;6.60;;
34035;SDS011;63481;52.588;22.472;2023-05-03T03:12:04;14.30;;;7.50;;
34035;SDS011;63481;52.588;22.472;2023-05-03T03:12:37;10.50;;;6.70;;
34035;SDS011;63481;52.588;22.472;2023-05-03T03:13:10;15.40;;;6.90;;
34035;SDS011;63481;52.588;22.472;2023-05-03T03:13:42;12.20;;;6.50;;
34035;SDS011;63481;52.588;22.472;2023-05-03T03:14:14;14.50;;;6.90;;
34035;SDS011;63481;52.588;22.472;2023-05-03T03:14:47;14.40;;;7.10;;
34035;SDS011;63481;52.588;22.472;2023-05-03T03:15:19;11.70;;;7.00;;
34035;SDS011;63481;52.588;22.472;2023-05-03T03:15:52;11.30;;;6.70;;
34035;SDS011;63481;52.588;22.472;2023-05-03T03:16:24;12.20;;;6.80;;
34035;SDS011;63481;52.588;22.472;2023-05-03T03:16:56;11.40;;;7.10;;
34035;SDS011;63481;52.588;22.472;2023-05-03T03:17:29;14.90;;;7.80;;
34035;SDS011;63481;52.588;22.472;2023-05-03T03:18:01;10.80;;;6.00;;
34035;SDS011;63481;52.588;22.472;2023-05-03T03:18:35;13.10;;;6.70;;
34035;SDS011;63481;52.588;22.472;2023-05-03T03:19:07;15.30;;;6.90;;
34035;SDS011;63481;52.588;22.472;2023-05-03T03:19:40;15.80;;;8.10;;
34035;SDS011;63481;52.588;22.472;2023-05-03T03:20:13;15.70;;;7.20;;
34035;SDS011;63481;52.588;22.472;2023-05-03T03:20:47;13.40;;;7.40;;
34035;SDS011;63481;52.588;22.472;2023-05-03T03:21:20;13.70;;;7.60;;
34035;SDS011;63481;52.588;22.472;2023-05-03T03:21:52;12.20;;;6.90;;
34035;SDS011;63481;52.588;22.472;2023-05-03T03:22:25;12.60;;;6.70;;
34035;SDS011;63481;52.588;22.472;2023-05-03T03:22:57;16.30;;;7.20;;
34035;SDS011;63481;52.588;22.472;2023-05-03T03:23:31;15.10;;;7.70;;
34035;SDS011;63481;52.588;22.472;2023-05-03T03:24:03;15.50;;;7.60;;
34035;SDS011;63481;52.588;22.472;2023-05-03T03:24:35;15.20;;;6.90;;
34035;SDS011;63481;52.588;22.472;2023-05-03T03:25:08;14.70;;;6.60;;
34035;SDS011;63481;52.588;22.472;2023-05-03T03:25:41;13.00;;;7.10;;
34035;SDS011;63481;52.588;22.472;2023-05-03T03:26:13;12.70;;;7.10;;
34035;SDS011;63481;52.588;22.472;2023-05-03T03:26:46;14.80;;;7.10;;
34035;SDS011;63481;52.588;22.472;2023-05-03T03:27:18;12.50;;;6.90;;